createdAt,value
2018-07-02T00:01:05.976Z,52.00
2018-07-02T00:03:36.699Z,50.30
2018-07-02T00:06:39.033Z,53.30
2018-07-02T00:09:10.264Z,51.10
2018-07-02T00:11:40.785Z,51.50
2018-07-02T00:14:11.414Z,52.30
2018-07-02T00:16:42.111Z,51.40
2018-07-02T00:19:12.917Z,53.60
2018-07-02T00:21:43.632Z,49.80
2018-07-02T00:24:15.180Z,50.70
2018-07-02T00:26:46.410Z,52.40
2018-07-02T00:29:17.145Z,53.30
2018-07-02T00:31:47.706Z,51.80
2018-07-02T00:34:18.629Z,53.70
2018-07-02T00:36:49.399Z,51.60
2018-07-02T00:39:20.193Z,52.70
2018-07-02T00:41:51.031Z,53.50
2018-07-02T00:44:22.216Z,52.90
2018-07-02T00:46:52.956Z,51.70
2018-07-02T00:49:23.616Z,52.20
2018-07-02T00:51:54.578Z,52.40
2018-07-02T00:54:25.218Z,51.30
2018-07-02T00:56:55.836Z,51.70
2018-07-02T00:59:26.477Z,52.40
2018-07-02T01:01:58.993Z,52.30
2018-07-02T01:04:29.689Z,52.80
2018-07-02T01:07:00.434Z,52.50
2018-07-02T01:09:31.046Z,53.30
2018-07-02T01:12:02.639Z,53.90
2018-07-02T01:14:33.243Z,52.50
2018-07-02T01:17:03.714Z,52.30
2018-07-02T01:22:04.627Z,53.60
2018-07-02T01:24:35.506Z,52.30
2018-07-02T01:27:06.381Z,54.30
2018-07-02T01:29:36.930Z,54.30
2018-07-02T01:32:07.641Z,53.10
2018-07-02T01:34:38.399Z,55.00
2018-07-02T01:37:08.976Z,56.30
2018-07-02T01:39:39.462Z,54.20
2018-07-02T01:42:10.153Z,55.70
2018-07-02T01:44:40.947Z,54.20
2018-07-02T01:47:11.432Z,55.40
2018-07-02T01:49:42.077Z,55.00
2018-07-02T01:52:13.325Z,55.50
2018-07-02T01:54:43.962Z,55.00
2018-07-02T01:57:14.695Z,56.30
2018-07-02T01:59:45.414Z,56.60
2018-07-02T02:02:15.976Z,57.00
2018-07-02T02:04:46.667Z,57.60
2018-07-02T02:07:17.128Z,56.90
2018-07-02T02:09:48.387Z,57.20
2018-07-02T02:12:19.002Z,57.70
2018-07-02T02:14:49.994Z,58.20
2018-07-02T02:17:20.973Z,56.40
2018-07-02T02:19:51.683Z,57.90
2018-07-02T02:24:52.430Z,58.90
2018-07-02T02:27:23.044Z,58.80
2018-07-02T02:29:53.801Z,59.00
2018-07-02T02:32:24.510Z,59.30
2018-07-02T02:34:55.291Z,59.10
2018-07-02T02:37:26.049Z,59.50
2018-07-02T02:39:56.613Z,60.10
2018-07-02T02:42:27.278Z,61.10
2018-07-02T02:47:28.177Z,62.30
2018-07-02T02:49:58.895Z,63.40
2018-07-02T02:52:29.714Z,62.60
2018-07-02T02:55:00.240Z,62.00
2018-07-02T02:57:31.365Z,60.50
2018-07-02T03:00:01.911Z,62.80
2018-07-02T03:02:32.702Z,61.80
2018-07-02T03:05:03.497Z,62.40
2018-07-02T03:07:34.518Z,62.60
2018-07-02T03:10:05.342Z,63.20
2018-07-02T03:12:36.061Z,63.40
2018-07-02T03:15:07.447Z,63.00
2018-07-02T03:17:38.336Z,63.20
2018-07-02T03:20:08.848Z,63.90
2018-07-02T03:22:46.678Z,63.40
2018-07-02T03:25:17.263Z,65.40
2018-07-02T03:27:47.695Z,62.70
2018-07-02T03:30:18.292Z,63.40
2018-07-02T03:32:48.900Z,64.00
2018-07-02T03:35:20.062Z,63.60
2018-07-02T03:37:50.589Z,63.80
2018-07-02T03:40:21.276Z,64.20
2018-07-02T03:42:51.945Z,65.10
2018-07-02T03:45:23.215Z,65.10
2018-07-02T03:47:53.891Z,65.60
2018-07-02T03:50:24.461Z,65.40
2018-07-02T03:55:25.117Z,64.80
2018-07-02T03:57:55.696Z,66.30
2018-07-02T04:00:26.284Z,64.10
2018-07-02T04:02:56.779Z,63.30
2018-07-02T04:05:27.561Z,64.40
2018-07-02T04:07:58.584Z,64.30
2018-07-02T04:10:29.099Z,66.70
2018-07-02T04:12:59.695Z,66.90
2018-07-02T04:15:30.382Z,66.30
2018-07-02T04:18:01.535Z,66.70
2018-07-02T04:20:32.093Z,67.00
2018-07-02T04:23:02.678Z,66.40
2018-07-02T04:25:33.155Z,67.70
2018-07-02T04:28:03.819Z,67.90
2018-07-02T04:33:04.772Z,67.60
2018-07-02T04:35:35.332Z,69.50
2018-07-02T04:38:05.946Z,69.20
2018-07-02T04:40:36.697Z,67.90
2018-07-02T04:43:07.443Z,69.00
2018-07-02T04:45:38.058Z,68.50
2018-07-02T04:48:08.608Z,68.80
2018-07-02T04:50:39.273Z,69.10
2018-07-02T04:53:09.918Z,67.00
2018-07-02T04:55:40.405Z,65.50
2018-07-02T04:58:11.777Z,65.90
2018-07-02T05:00:42.919Z,63.90
2018-07-02T05:03:14.075Z,64.10
2018-07-02T05:05:44.523Z,61.50
2018-07-02T05:08:15.114Z,62.70
2018-07-02T05:10:45.634Z,65.60
2018-07-02T05:13:16.442Z,63.20
2018-07-02T05:15:47.129Z,60.10
2018-07-02T05:18:18.033Z,58.00
2018-07-02T05:20:48.823Z,61.10
2018-07-02T05:23:20.457Z,59.80
2018-07-02T05:25:50.926Z,58.70
2018-07-02T05:28:21.681Z,52.20
2018-07-02T05:30:52.303Z,46.10
2018-07-02T05:35:53.019Z,38.30
2018-07-02T05:38:23.656Z,34.10
2018-07-02T05:40:54.256Z,31.30
2018-07-02T05:43:24.842Z,31.30
2018-07-02T05:45:55.431Z,30.40
2018-07-02T05:48:25.926Z,29.30
2018-07-02T05:50:56.461Z,28.60
2018-07-02T05:53:27.165Z,27.70
2018-07-02T05:55:57.954Z,28.10
2018-07-02T05:58:28.765Z,28.70
2018-07-02T06:00:59.455Z,27.90
2018-07-02T06:03:30.010Z,29.50
2018-07-02T06:06:00.626Z,26.30
2018-07-02T06:08:32.027Z,26.30
2018-07-02T06:11:02.661Z,27.80
2018-07-02T06:13:33.599Z,25.90
2018-07-02T06:16:04.689Z,27.90
2018-07-02T06:18:35.313Z,26.80
2018-07-02T06:21:08.037Z,25.20
2018-07-02T06:23:38.745Z,25.00
2018-07-02T06:26:09.214Z,25.40
2018-07-02T06:28:40.089Z,25.20
2018-07-02T06:31:10.790Z,26.50
2018-07-02T06:33:41.372Z,27.10
2018-07-02T06:36:12.189Z,27.40
2018-07-02T06:38:42.768Z,25.10
2018-07-02T06:41:13.274Z,27.30
2018-07-02T06:43:43.756Z,25.30
2018-07-02T06:46:14.509Z,25.30
2018-07-02T06:48:45.225Z,26.80
2018-07-02T06:51:16.794Z,26.00
2018-07-02T06:53:47.331Z,24.20
2018-07-02T06:56:17.856Z,25.40
2018-07-02T06:58:48.559Z,24.20
2018-07-02T07:01:19.198Z,25.00
2018-07-02T07:03:49.918Z,24.30
2018-07-02T07:06:20.681Z,26.90
2018-07-02T07:08:51.349Z,23.50
2018-07-02T07:11:22.101Z,24.00
2018-07-02T07:13:52.800Z,24.30
2018-07-02T07:16:23.316Z,24.00
2018-07-02T07:18:53.961Z,24.00
2018-07-02T07:21:24.863Z,23.40
2018-07-02T07:23:55.551Z,23.90
2018-07-02T07:26:26.279Z,23.20
2018-07-02T07:28:57.629Z,23.80
2018-07-02T07:31:28.129Z,23.90
2018-07-02T07:33:58.714Z,24.50
2018-07-02T07:36:29.404Z,24.70
2018-07-02T07:38:59.938Z,24.90
2018-07-02T07:41:30.664Z,23.90
2018-07-02T07:44:02.153Z,24.40
2018-07-02T07:46:32.748Z,25.00
2018-07-02T07:49:03.476Z,24.10
2018-07-02T07:51:34.838Z,23.60
2018-07-02T07:54:08.675Z,25.50
2018-07-02T07:56:39.515Z,24.10
2018-07-02T07:59:10.035Z,23.70
2018-07-02T08:01:40.638Z,23.70
2018-07-02T08:04:11.156Z,23.50
2018-07-02T08:06:42.871Z,23.30
2018-07-02T08:09:14.077Z,24.20
2018-07-02T08:11:52.009Z,25.20
2018-07-02T08:14:23.857Z,23.50
2018-07-02T08:16:55.408Z,23.60
2018-07-02T08:19:25.929Z,23.60
2018-07-02T08:21:56.581Z,23.70
2018-07-02T08:24:27.364Z,26.20
2018-07-02T08:29:28.232Z,23.60
2018-07-02T08:31:58.814Z,25.90
2018-07-02T08:34:29.445Z,24.00
2018-07-02T08:37:00.149Z,21.80
2018-07-02T08:39:31.110Z,21.80
2018-07-02T08:42:01.678Z,21.80
2018-07-02T08:44:32.774Z,24.20
2018-07-02T08:47:03.601Z,22.60
2018-07-02T08:49:34.455Z,21.70
2018-07-02T08:52:05.173Z,23.10
2018-07-02T08:54:35.796Z,21.20
2018-07-02T08:57:06.452Z,21.30
2018-07-02T08:59:37.119Z,21.60
2018-07-02T09:02:07.760Z,21.60
2018-07-02T09:04:38.503Z,21.10
2018-07-02T09:07:09.184Z,21.50
2018-07-02T09:09:39.605Z,21.60
2018-07-02T09:12:10.982Z,22.60
2018-07-02T09:14:41.737Z,23.80
2018-07-02T09:17:12.329Z,22.30
2018-07-02T09:19:42.912Z,21.90
2018-07-02T09:22:13.731Z,22.00
2018-07-02T09:24:44.189Z,21.70
2018-07-02T09:27:21.609Z,23.10
2018-07-02T09:29:52.420Z,22.20
2018-07-02T09:32:23.092Z,24.70
2018-07-02T09:34:53.680Z,24.60
2018-07-02T09:37:24.907Z,21.20
2018-07-02T09:39:55.515Z,21.90
2018-07-02T09:42:26.192Z,20.90
2018-07-02T09:44:57.477Z,21.60
2018-07-02T09:47:29.059Z,21.70
2018-07-02T09:49:59.525Z,22.40
2018-07-02T09:52:30.284Z,21.60
2018-07-02T09:55:00.907Z,22.80
2018-07-02T09:57:32.111Z,20.70
2018-07-02T10:00:02.666Z,21.40
2018-07-02T10:05:03.416Z,22.50
2018-07-02T10:07:34.163Z,21.40
2018-07-02T10:10:05.653Z,23.40
2018-07-02T10:12:36.445Z,22.30
2018-07-02T10:15:07.562Z,23.40
2018-07-02T10:20:08.453Z,22.70
2018-07-02T10:22:39.216Z,23.40
2018-07-02T10:25:09.985Z,23.20
2018-07-02T10:27:40.520Z,21.50
2018-07-02T10:30:11.129Z,21.20
2018-07-02T10:32:41.883Z,24.20
2018-07-02T10:35:12.510Z,21.60
2018-07-02T10:37:43.374Z,22.40
2018-07-02T10:40:14.092Z,19.50
2018-07-02T10:42:44.925Z,20.10
2018-07-02T10:45:16.819Z,20.70
2018-07-02T10:47:47.528Z,21.20
2018-07-02T10:50:18.277Z,21.80
2018-07-02T10:52:48.946Z,22.70
2018-07-02T10:55:19.672Z,23.30
2018-07-02T10:57:50.485Z,23.30
2018-07-02T11:00:21.080Z,22.70
2018-07-02T11:02:51.763Z,21.20
2018-07-02T11:05:22.465Z,21.40
2018-07-02T11:07:53.221Z,20.70
2018-07-02T11:10:23.937Z,21.50
2018-07-02T11:12:54.629Z,22.00
2018-07-02T11:15:25.280Z,24.00
2018-07-02T11:17:55.824Z,23.80
2018-07-02T11:20:26.964Z,27.60
2018-07-02T11:22:57.599Z,26.30
2018-07-02T11:25:28.276Z,30.40
2018-07-02T11:28:00.094Z,27.00
2018-07-02T11:30:30.844Z,27.60
2018-07-02T11:33:01.824Z,29.20
2018-07-02T11:35:33.036Z,27.70
2018-07-02T11:38:03.733Z,28.10
2018-07-02T11:40:34.450Z,28.50
2018-07-02T11:43:05.358Z,29.80
2018-07-02T11:45:36.820Z,28.90
2018-07-02T11:48:07.524Z,30.00
2018-07-02T11:50:38.186Z,30.80
2018-07-02T11:53:08.891Z,30.90
2018-07-02T11:55:39.581Z,28.70
2018-07-02T11:58:10.401Z,28.60
2018-07-02T12:00:41.177Z,28.80
2018-07-02T12:03:11.926Z,28.50
2018-07-02T12:05:47.638Z,30.80
2018-07-02T12:08:18.502Z,31.30
2018-07-02T12:10:49.034Z,29.00
2018-07-02T12:13:19.662Z,29.70
2018-07-02T12:15:50.417Z,29.40
2018-07-02T12:18:21.517Z,28.60
2018-07-02T12:23:23.046Z,29.60
2018-07-02T12:25:53.728Z,30.10
2018-07-02T12:30:54.985Z,29.60
2018-07-02T12:33:25.694Z,29.70
2018-07-02T12:35:56.220Z,29.30
2018-07-02T12:38:26.762Z,29.60
2018-07-02T12:40:57.450Z,29.60
2018-07-02T12:43:28.068Z,29.30
2018-07-02T12:45:58.700Z,29.60
2018-07-02T12:48:29.337Z,28.70
2018-07-02T12:51:00.545Z,29.20
2018-07-02T12:53:31.631Z,28.60
2018-07-02T12:56:02.828Z,28.90
2018-07-02T13:01:04.111Z,28.80
2018-07-02T13:03:34.724Z,29.80
2018-07-02T13:06:05.686Z,27.70
2018-07-02T13:08:37.807Z,27.60
2018-07-02T13:11:08.386Z,28.80
2018-07-02T13:13:39.130Z,28.80
2018-07-02T13:16:10.327Z,31.10
2018-07-02T13:18:41.013Z,29.30
2018-07-02T13:21:11.540Z,29.10
2018-07-02T13:23:42.177Z,29.90
2018-07-02T13:26:12.796Z,27.30
2018-07-02T13:28:43.539Z,27.30
2018-07-02T13:31:14.159Z,27.70
2018-07-02T13:33:44.992Z,27.50
2018-07-02T13:36:16.909Z,27.60
2018-07-02T13:38:48.737Z,27.70
2018-07-02T13:41:19.868Z,27.90
2018-07-02T13:43:50.518Z,28.80
2018-07-02T13:46:21.046Z,29.40
2018-07-02T13:48:51.749Z,28.60
2018-07-02T13:51:22.984Z,29.30
2018-07-02T13:56:23.870Z,27.60
2018-07-02T13:58:54.692Z,29.30
2018-07-02T14:01:25.240Z,28.70
2018-07-02T14:03:55.948Z,28.60
2018-07-02T14:06:26.542Z,29.20
2018-07-02T14:08:57.699Z,29.30
2018-07-02T14:11:28.489Z,28.10
2018-07-02T14:13:59.169Z,28.30
2018-07-02T14:16:29.597Z,28.40
2018-07-02T14:19:00.139Z,29.30
2018-07-02T14:21:31.319Z,28.50
2018-07-02T14:24:01.979Z,28.70
2018-07-02T14:26:32.414Z,28.80
2018-07-02T14:29:03.374Z,27.80
2018-07-02T14:31:34.156Z,27.80
2018-07-02T14:34:04.923Z,28.60
2018-07-02T14:36:35.434Z,29.00
2018-07-02T14:39:10.414Z,29.80
2018-07-02T14:44:11.869Z,28.90
2018-07-02T14:46:42.559Z,28.80
2018-07-02T14:49:13.522Z,27.90
2018-07-02T14:51:44.156Z,28.40
2018-07-02T14:54:14.954Z,27.30
2018-07-02T14:56:45.660Z,27.80
2018-07-02T14:59:16.404Z,28.10
2018-07-02T15:01:47.173Z,28.30
2018-07-02T15:04:17.876Z,27.70
2018-07-02T15:06:48.519Z,28.70
2018-07-02T15:09:19.025Z,28.30
2018-07-02T15:14:19.780Z,28.20
2018-07-02T15:16:50.329Z,28.80
2018-07-02T15:19:21.247Z,28.60
2018-07-02T15:21:51.891Z,29.30
2018-07-02T15:24:22.721Z,29.10
2018-07-02T15:26:53.486Z,27.40
2018-07-02T15:29:24.093Z,27.40
2018-07-02T15:31:54.765Z,28.40
2018-07-02T15:34:25.562Z,27.70
2018-07-02T15:36:56.322Z,27.60
2018-07-02T15:39:26.989Z,27.30
2018-07-02T15:41:57.544Z,27.50
2018-07-02T15:44:28.074Z,28.30
2018-07-02T15:46:58.799Z,28.10
2018-07-02T15:49:29.501Z,27.40
2018-07-02T15:52:00.226Z,27.70
2018-07-02T15:54:30.800Z,28.60
2018-07-02T15:57:01.954Z,28.20
2018-07-02T15:59:32.604Z,28.30
2018-07-02T16:02:03.153Z,29.20
2018-07-02T16:04:33.707Z,28.10
2018-07-02T16:07:04.391Z,28.30
2018-07-02T16:09:34.999Z,27.80
2018-07-02T16:12:06.378Z,28.30
2018-07-02T16:14:36.903Z,28.70
2018-07-02T16:22:08.071Z,29.10
2018-07-02T16:24:38.852Z,28.60
2018-07-02T16:27:09.889Z,28.30
2018-07-02T16:29:40.513Z,27.70
2018-07-02T16:32:11.758Z,27.90
2018-07-02T16:34:42.322Z,27.80
2018-07-02T16:37:12.965Z,28.40
2018-07-02T16:39:43.992Z,28.40
2018-07-02T16:42:14.857Z,28.60
2018-07-02T16:44:45.359Z,28.20
2018-07-02T16:47:16.124Z,28.50
2018-07-02T16:49:46.776Z,29.00
2018-07-02T16:52:17.680Z,30.70
2018-07-02T16:54:48.356Z,29.70
2018-07-02T16:57:19.173Z,29.50
2018-07-02T16:59:49.664Z,30.80
2018-07-02T17:02:20.897Z,29.70
2018-07-02T17:04:51.463Z,29.40
2018-07-02T17:07:22.618Z,29.80
2018-07-02T17:09:53.580Z,29.10
2018-07-02T17:12:24.184Z,29.10
2018-07-02T17:14:54.813Z,28.70
2018-07-02T17:17:25.575Z,28.80
2018-07-02T17:19:56.176Z,29.60
2018-07-02T17:22:26.832Z,29.10
2018-07-02T17:24:57.465Z,28.80
2018-07-02T17:27:28.597Z,29.30
2018-07-02T17:29:59.520Z,30.10
2018-07-02T17:32:30.531Z,30.20
2018-07-02T17:35:01.405Z,29.70
2018-07-02T17:37:32.752Z,28.80
2018-07-02T17:42:33.500Z,33.20
2018-07-02T17:45:04.229Z,32.10
2018-07-02T17:47:35.169Z,31.80
2018-07-02T17:50:06.095Z,32.80
2018-07-02T17:52:36.839Z,34.80
2018-07-02T17:55:07.888Z,36.00
2018-07-02T17:57:38.852Z,34.20
2018-07-02T18:00:09.527Z,31.90
2018-07-02T18:02:40.045Z,35.30
2018-07-02T18:05:10.728Z,35.40
2018-07-02T18:07:41.497Z,33.50
2018-07-02T18:10:12.500Z,36.60
2018-07-02T18:12:43.265Z,37.60
2018-07-02T18:15:13.990Z,38.50
2018-07-02T18:17:44.736Z,39.20
2018-07-02T18:20:15.917Z,40.60
2018-07-02T18:22:46.571Z,41.10
2018-07-02T18:25:17.273Z,41.50
2018-07-02T18:27:48.069Z,42.40
2018-07-02T18:30:18.987Z,42.40
2018-07-02T18:32:49.739Z,44.10
2018-07-02T18:35:20.577Z,44.40
2018-07-02T18:37:51.319Z,44.30
2018-07-02T18:40:22.375Z,43.80
2018-07-02T18:42:52.990Z,44.50
2018-07-02T18:45:23.867Z,45.70
2018-07-02T18:47:54.468Z,45.40
2018-07-02T18:50:25.407Z,45.00
2018-07-02T18:52:56.311Z,45.00
2018-07-02T18:55:27.318Z,45.40
2018-07-02T18:57:58.070Z,45.20
2018-07-02T19:00:29.102Z,45.60
2018-07-02T19:02:59.819Z,45.70
2018-07-02T19:05:30.659Z,46.00
2018-07-02T19:08:01.477Z,45.70
2018-07-02T19:10:32.905Z,46.50
2018-07-02T19:13:04.412Z,47.10
2018-07-02T19:15:35.284Z,47.10
2018-07-02T19:18:06.645Z,47.50
2018-07-02T19:20:37.487Z,47.70
2018-07-02T19:23:08.404Z,48.20
2018-07-02T19:25:39.085Z,49.10
2018-07-02T19:28:09.986Z,53.90
2018-07-02T19:30:41.265Z,50.50
2018-07-02T19:33:12.097Z,52.40
2018-07-02T19:35:42.803Z,52.90
2018-07-02T19:38:13.506Z,53.10
2018-07-02T19:40:44.804Z,52.70
2018-07-02T19:43:16.286Z,52.30
2018-07-02T19:45:47.211Z,51.60
2018-07-02T19:48:18.052Z,51.80
2018-07-02T19:50:48.928Z,53.00
2018-07-02T19:53:19.449Z,52.60
2018-07-02T19:55:50.525Z,52.30
2018-07-02T19:58:21.347Z,52.80
2018-07-02T20:03:22.477Z,52.40
2018-07-02T20:05:54.011Z,52.20
2018-07-02T20:08:24.873Z,54.10
2018-07-02T20:13:26.225Z,53.00
2018-07-02T20:15:56.894Z,52.30
2018-07-02T20:18:27.766Z,52.10
2018-07-02T20:20:58.559Z,52.90
2018-07-02T20:23:31.645Z,53.10
2018-07-02T20:26:02.604Z,52.40
2018-07-02T20:28:34.442Z,53.50
2018-07-02T20:31:05.478Z,54.30
2018-07-02T20:33:36.289Z,52.30
2018-07-02T20:36:07.459Z,52.90
2018-07-02T20:38:38.051Z,53.20
2018-07-02T20:41:08.905Z,53.20
2018-07-02T20:43:40.360Z,53.20
2018-07-02T20:46:10.918Z,53.80
2018-07-02T20:51:12.917Z,52.90
2018-07-02T20:53:43.763Z,54.20
2018-07-02T20:56:14.606Z,54.00
2018-07-02T20:58:45.276Z,54.80
2018-07-02T21:01:15.835Z,53.70
2018-07-02T21:03:46.813Z,54.90
2018-07-02T21:06:18.710Z,53.60
2018-07-02T21:11:20.805Z,53.40
2018-07-02T21:13:55.487Z,52.90
2018-07-02T21:16:26.287Z,53.00
2018-07-02T21:21:29.245Z,52.40
2018-07-02T21:24:00.820Z,53.70
2018-07-02T21:29:01.693Z,53.70
2018-07-02T21:31:32.536Z,53.50
2018-07-02T21:34:03.263Z,52.60
2018-07-02T21:36:33.999Z,54.50
2018-07-02T21:39:07.193Z,52.80
2018-07-02T21:41:37.883Z,54.30
2018-07-02T21:44:08.759Z,54.00
2018-07-02T21:46:39.213Z,52.50
2018-07-02T21:49:09.925Z,55.20
2018-07-02T21:51:40.553Z,56.60
2018-07-02T21:54:11.376Z,55.80
2018-07-02T21:56:41.961Z,54.10
2018-07-02T21:59:12.539Z,53.30
2018-07-02T22:01:43.289Z,55.60
2018-07-02T22:04:13.930Z,55.60
2018-07-02T22:06:44.811Z,53.50
2018-07-02T22:09:15.563Z,53.40
2018-07-02T22:11:46.281Z,53.70
2018-07-02T22:14:17.228Z,53.50
2018-07-02T22:16:48.105Z,55.50
2018-07-02T22:19:18.656Z,53.20
2018-07-02T22:21:49.362Z,55.00
2018-07-02T22:24:20.085Z,53.60
2018-07-02T22:26:50.825Z,52.20
2018-07-02T22:29:21.552Z,54.50
2018-07-02T22:31:53.249Z,53.60
2018-07-02T22:34:23.752Z,52.60
2018-07-02T22:36:54.481Z,54.60
2018-07-02T22:39:25.049Z,55.00
2018-07-02T22:41:56.156Z,55.30
2018-07-02T22:44:26.680Z,54.60
2018-07-02T22:46:57.340Z,54.00
2018-07-02T22:49:28.178Z,54.70
2018-07-02T22:51:58.793Z,53.40
2018-07-02T22:54:29.502Z,51.30
2018-07-02T22:57:00.332Z,52.90
2018-07-02T22:59:31.185Z,51.60
2018-07-02T23:02:01.747Z,52.80
2018-07-02T23:04:32.344Z,52.30
2018-07-02T23:07:02.868Z,53.80
2018-07-02T23:09:33.701Z,55.80
2018-07-02T23:12:04.370Z,55.40
2018-07-02T23:14:34.978Z,55.20
2018-07-02T23:17:05.652Z,53.90
2018-07-02T23:19:36.465Z,52.60
2018-07-02T23:22:07.209Z,52.00
2018-07-02T23:24:37.944Z,55.30
2018-07-02T23:27:08.725Z,54.70
2018-07-02T23:34:47.053Z,54.80
2018-07-02T23:37:17.738Z,53.10
2018-07-02T23:39:48.656Z,54.80
2018-07-02T23:42:19.837Z,54.30
2018-07-02T23:44:50.416Z,52.10
2018-07-02T23:47:20.948Z,52.60
2018-07-02T23:49:51.928Z,54.70
2018-07-02T23:52:22.625Z,53.50
2018-07-02T23:57:23.557Z,55.30
2018-07-02T23:59:54.133Z,54.50
